createdAt,value
2018-05-31T00:00:10.039Z,72.80
2018-05-31T00:02:39.175Z,72.40
2018-05-31T00:05:08.297Z,72.60
2018-05-31T00:07:37.393Z,71.70
2018-05-31T00:10:06.580Z,71.20
2018-05-31T00:12:35.700Z,70.80
2018-05-31T00:15:04.824Z,70.90
2018-05-31T00:17:33.916Z,71.10
2018-05-31T00:20:03.064Z,70.60
2018-05-31T00:22:32.176Z,70.40
2018-05-31T00:25:01.325Z,70.30
2018-05-31T00:27:31.212Z,70.30
2018-05-31T00:30:00.332Z,70.30
2018-05-31T00:32:29.519Z,70.00
2018-05-31T00:34:58.657Z,70.40
2018-05-31T00:37:27.761Z,70.10
2018-05-31T00:39:56.885Z,69.80
2018-05-31T00:42:26.068Z,69.60
2018-05-31T00:44:55.177Z,69.50
2018-05-31T00:47:24.336Z,70.00
2018-05-31T00:49:54.193Z,69.60
2018-05-31T00:52:23.313Z,69.60
2018-05-31T00:54:52.387Z,69.20
2018-05-31T00:57:22.278Z,69.50
2018-05-31T00:59:51.393Z,69.50
2018-05-31T01:02:20.568Z,69.40
2018-05-31T01:04:49.681Z,69.70
2018-05-31T01:07:18.792Z,69.90
2018-05-31T01:09:47.900Z,69.90
2018-05-31T01:12:17.007Z,70.00
2018-05-31T01:14:46.123Z,70.20
2018-05-31T01:17:15.226Z,70.80
2018-05-31T01:19:44.429Z,72.40
2018-05-31T01:22:13.549Z,72.00
2018-05-31T01:24:42.669Z,72.10
2018-05-31T01:27:11.755Z,73.00
2018-05-31T01:29:41.667Z,72.10
2018-05-31T01:32:11.561Z,72.30
2018-05-31T01:34:40.673Z,72.10
2018-05-31T01:37:09.797Z,72.00
2018-05-31T01:39:38.943Z,72.70
2018-05-31T01:42:08.059Z,72.90
2018-05-31T01:44:37.960Z,72.80
2018-05-31T01:47:07.134Z,72.80
2018-05-31T01:49:36.220Z,72.80
2018-05-31T01:52:06.125Z,72.40
2018-05-31T01:54:36.041Z,72.50
2018-05-31T01:57:05.157Z,72.70
2018-05-31T01:59:34.369Z,73.00
2018-05-31T02:02:03.491Z,73.00
2018-05-31T02:04:32.590Z,72.90
2018-05-31T02:07:01.746Z,72.90
2018-05-31T02:09:30.869Z,72.90
2018-05-31T02:12:00.020Z,72.90
2018-05-31T02:14:29.190Z,72.90
2018-05-31T02:16:58.360Z,72.90
2018-05-31T02:19:28.206Z,72.50
2018-05-31T02:21:58.056Z,72.70
2018-05-31T02:24:27.151Z,72.70
2018-05-31T02:26:56.288Z,73.00
2018-05-31T02:29:25.498Z,72.90
2018-05-31T02:31:54.611Z,72.90
2018-05-31T02:34:23.737Z,73.60
2018-05-31T02:36:52.860Z,74.20
2018-05-31T02:39:21.975Z,74.00
2018-05-31T02:41:51.105Z,74.00
2018-05-31T02:44:20.989Z,74.50
2018-05-31T02:46:50.139Z,73.80
2018-05-31T02:49:19.259Z,73.50
2018-05-31T02:51:49.126Z,74.70
2018-05-31T02:54:18.261Z,74.00
2018-05-31T02:56:47.427Z,74.20
2018-05-31T02:59:17.299Z,74.50
2018-05-31T03:01:46.385Z,74.50
2018-05-31T03:04:15.518Z,74.50
2018-05-31T03:06:44.678Z,74.50
2018-05-31T03:09:14.560Z,75.10
2018-05-31T03:11:43.677Z,75.00
2018-05-31T03:14:12.861Z,75.20
2018-05-31T03:16:42.069Z,74.80
2018-05-31T03:19:11.171Z,74.40
2018-05-31T03:21:40.375Z,74.50
2018-05-31T03:24:10.257Z,74.60
2018-05-31T03:26:39.384Z,74.60
2018-05-31T03:29:08.516Z,74.50
2018-05-31T03:31:37.600Z,74.30
2018-05-31T03:34:06.732Z,75.00
2018-05-31T03:36:35.863Z,74.30
2018-05-31T03:39:05.823Z,74.20
2018-05-31T03:41:34.945Z,74.10
2018-05-31T03:44:04.110Z,75.00
2018-05-31T03:46:33.997Z,73.90
2018-05-31T03:49:03.181Z,73.90
2018-05-31T03:51:32.296Z,74.30
2018-05-31T03:54:01.381Z,75.50
2018-05-31T03:56:30.539Z,75.00
2018-05-31T03:58:59.684Z,74.50
2018-05-31T04:01:29.662Z,73.50
2018-05-31T04:03:58.807Z,73.50
2018-05-31T04:06:27.953Z,73.20
2018-05-31T04:08:57.051Z,73.30
2018-05-31T04:11:26.930Z,73.40
2018-05-31T04:13:56.987Z,73.40
2018-05-31T04:16:26.132Z,73.10
2018-05-31T04:18:56.026Z,73.60
2018-05-31T04:21:25.548Z,73.60
2018-05-31T04:23:54.646Z,73.40
2018-05-31T04:26:23.799Z,72.90
2018-05-31T04:28:54.055Z,71.50
2018-05-31T04:31:23.177Z,71.40
2018-05-31T04:33:52.284Z,71.40
2018-05-31T04:36:21.372Z,70.50
2018-05-31T04:38:50.513Z,70.80
2018-05-31T04:41:19.617Z,70.00
2018-05-31T04:43:48.743Z,69.10
2018-05-31T04:46:17.882Z,69.00
2018-05-31T04:48:47.081Z,69.20
2018-05-31T04:51:16.488Z,68.50
2018-05-31T04:53:45.626Z,68.70
2018-05-31T04:56:14.802Z,68.10
2018-05-31T04:58:43.928Z,68.30
2018-05-31T05:01:13.065Z,68.80
2018-05-31T05:03:42.244Z,68.90
2018-05-31T05:06:11.402Z,68.00
2018-05-31T05:08:41.283Z,67.30
2018-05-31T05:11:10.375Z,67.30
2018-05-31T05:13:39.545Z,66.90
2018-05-31T05:16:08.636Z,66.70
2018-05-31T05:18:37.888Z,66.50
2018-05-31T05:21:07.839Z,65.90
2018-05-31T05:23:36.969Z,65.90
2018-05-31T05:26:06.140Z,65.50
2018-05-31T05:28:36.049Z,65.10
2018-05-31T05:31:05.191Z,65.10
2018-05-31T05:33:34.296Z,65.20
2018-05-31T05:36:04.276Z,65.70
2018-05-31T05:38:33.375Z,65.60
2018-05-31T05:41:02.528Z,65.40
2018-05-31T05:43:31.618Z,64.10
2018-05-31T05:46:00.714Z,64.70
2018-05-31T05:48:29.872Z,63.80
2018-05-31T05:50:59.837Z,63.60
2018-05-31T05:53:28.981Z,63.40
2018-05-31T05:55:58.123Z,62.80
2018-05-31T05:58:28.044Z,62.60
2018-05-31T06:00:57.123Z,62.60
2018-05-31T06:03:26.237Z,62.10
2018-05-31T06:05:55.374Z,61.80
2018-05-31T06:08:24.565Z,61.30
2018-05-31T06:10:53.697Z,61.40
2018-05-31T06:13:23.610Z,61.60
2018-05-31T06:15:52.732Z,61.60
2018-05-31T06:18:21.818Z,60.90
2018-05-31T06:20:50.906Z,60.90
2018-05-31T06:23:20.116Z,61.80
2018-05-31T06:25:49.244Z,60.30
2018-05-31T06:28:18.365Z,57.20
2018-05-31T06:30:47.458Z,57.80
2018-05-31T06:33:16.577Z,57.50
2018-05-31T06:35:45.726Z,56.50
2018-05-31T06:38:14.824Z,56.60
2018-05-31T06:40:44.056Z,56.60
2018-05-31T06:43:13.201Z,55.00
2018-05-31T06:45:42.375Z,54.70
2018-05-31T06:48:11.506Z,53.70
2018-05-31T06:50:41.377Z,53.40
2018-05-31T06:53:10.489Z,53.30
2018-05-31T06:55:39.593Z,54.10
2018-05-31T06:58:09.646Z,51.50
2018-05-31T07:00:39.721Z,50.60
2018-05-31T07:03:09.599Z,49.70
2018-05-31T07:05:38.688Z,49.60
2018-05-31T07:08:07.885Z,49.80
2018-05-31T07:10:37.827Z,50.60
2018-05-31T07:13:06.903Z,50.50
2018-05-31T07:15:36.010Z,49.00
2018-05-31T07:18:05.140Z,49.20
2018-05-31T07:23:33.388Z,48.70
2018-05-31T07:26:02.530Z,45.10
2018-05-31T07:31:32.753Z,45.30
2018-05-31T07:34:02.626Z,44.30
2018-05-31T07:36:31.758Z,44.30
2018-05-31T07:39:00.815Z,44.90
2018-05-31T07:41:30.693Z,44.60
2018-05-31T07:43:59.806Z,44.60
2018-05-31T07:46:28.987Z,43.80
2018-05-31T07:48:58.827Z,43.40
2018-05-31T07:51:27.987Z,43.10
2018-05-31T07:53:57.901Z,42.30
2018-05-31T07:56:27.005Z,42.30
2018-05-31T07:58:56.084Z,42.50
2018-05-31T08:01:25.524Z,42.20
2018-05-31T08:03:54.612Z,43.20
2018-05-31T08:06:23.747Z,42.30
2018-05-31T08:08:52.840Z,42.50
2018-05-31T08:11:21.956Z,42.80
2018-05-31T08:13:51.050Z,41.30
2018-05-31T08:16:20.181Z,42.50
2018-05-31T08:18:49.351Z,42.10
2018-05-31T08:21:18.476Z,41.50
2018-05-31T08:23:48.401Z,42.10
2018-05-31T08:26:18.294Z,42.40
2018-05-31T08:28:47.425Z,42.20
2018-05-31T08:31:16.729Z,41.70
2018-05-31T08:33:45.834Z,41.50
2018-05-31T08:36:14.927Z,41.50
2018-05-31T08:38:44.022Z,42.40
2018-05-31T08:41:13.132Z,43.60
2018-05-31T08:43:42.239Z,41.70
2018-05-31T08:46:11.405Z,41.80
2018-05-31T08:48:41.994Z,39.40
2018-05-31T08:51:11.138Z,39.40
2018-05-31T08:53:41.013Z,39.90
2018-05-31T08:56:10.918Z,38.70
2018-05-31T08:58:40.025Z,38.70
2018-05-31T09:01:09.130Z,39.20
2018-05-31T09:03:38.405Z,37.00
2018-05-31T09:06:07.510Z,37.00
2018-05-31T09:08:36.617Z,38.90
2018-05-31T09:11:05.746Z,38.40
2018-05-31T09:13:34.869Z,37.20
2018-05-31T09:16:03.940Z,38.80
2018-05-31T09:18:33.048Z,36.90
2018-05-31T09:21:02.176Z,37.40
2018-05-31T09:23:31.394Z,36.10
2018-05-31T09:26:00.602Z,35.90
2018-05-31T09:28:29.736Z,36.30
2018-05-31T09:30:58.881Z,36.50
2018-05-31T09:33:27.953Z,35.60
2018-05-31T09:35:57.081Z,36.60
2018-05-31T09:38:26.160Z,36.70
2018-05-31T09:40:55.328Z,35.10
2018-05-31T09:43:24.401Z,32.90
2018-05-31T09:45:53.551Z,33.90
2018-05-31T09:48:23.409Z,31.90
2018-05-31T09:50:52.485Z,31.90
2018-05-31T09:53:21.585Z,32.50
2018-05-31T09:55:50.749Z,33.50
2018-05-31T09:58:19.815Z,33.50
2018-05-31T10:00:48.948Z,33.60
2018-05-31T10:03:18.781Z,33.20
2018-05-31T10:05:47.910Z,33.20
2018-05-31T10:08:16.985Z,33.30
2018-05-31T10:10:46.881Z,32.10
2018-05-31T10:13:15.992Z,32.10
2018-05-31T10:15:45.069Z,33.00
2018-05-31T10:18:14.191Z,33.60
2018-05-31T10:20:43.252Z,33.50
2018-05-31T10:23:13.213Z,32.40
2018-05-31T10:25:42.349Z,32.40
2018-05-31T10:28:11.501Z,31.00
2018-05-31T10:30:41.393Z,33.30
2018-05-31T10:33:10.523Z,33.30
2018-05-31T10:35:39.886Z,30.00
2018-05-31T10:38:09.026Z,30.50
2018-05-31T10:40:38.259Z,31.30
2018-05-31T10:43:08.283Z,30.00
2018-05-31T10:45:37.366Z,29.90
2018-05-31T10:48:06.478Z,30.20
2018-05-31T10:50:35.640Z,30.50
2018-05-31T10:53:05.555Z,28.40
2018-05-31T10:55:34.680Z,28.40
2018-05-31T10:58:03.817Z,29.10
2018-05-31T11:00:34.131Z,29.30
2018-05-31T11:03:03.224Z,29.20
2018-05-31T11:05:33.071Z,29.60
2018-05-31T11:08:02.168Z,29.90
2018-05-31T11:10:31.267Z,29.50
2018-05-31T11:13:00.397Z,29.60
2018-05-31T11:15:29.544Z,29.10
2018-05-31T11:17:59.425Z,29.00
2018-05-31T11:20:28.616Z,28.90
2018-05-31T11:22:57.717Z,28.50
2018-05-31T11:25:26.800Z,28.90
2018-05-31T11:27:56.676Z,29.10
2018-05-31T11:30:25.798Z,29.10
2018-05-31T11:32:54.961Z,28.70
2018-05-31T11:35:24.046Z,29.20
2018-05-31T11:37:53.140Z,29.20
2018-05-31T11:40:22.213Z,28.80
2018-05-31T11:42:51.345Z,29.20
2018-05-31T11:45:20.415Z,28.70
2018-05-31T11:47:49.616Z,29.60
2018-05-31T11:50:18.687Z,29.00
2018-05-31T11:52:47.850Z,29.80
2018-05-31T11:55:16.926Z,28.30
2018-05-31T11:57:46.020Z,28.90
2018-05-31T12:00:15.156Z,29.50
2018-05-31T12:02:45.065Z,29.80
2018-05-31T12:05:14.200Z,29.70
2018-05-31T12:07:44.064Z,29.60
2018-05-31T12:10:13.148Z,29.60
2018-05-31T12:12:43.134Z,30.00
2018-05-31T12:15:12.357Z,30.00
2018-05-31T12:17:41.437Z,28.20
2018-05-31T12:20:10.591Z,28.50
2018-05-31T12:22:39.664Z,28.30
2018-05-31T12:25:08.808Z,28.80
2018-05-31T12:27:37.964Z,29.30
2018-05-31T12:30:07.045Z,28.70
2018-05-31T12:32:36.872Z,29.60
2018-05-31T12:35:06.742Z,28.20
2018-05-31T12:37:35.871Z,28.10
2018-05-31T12:40:04.937Z,28.30
2018-05-31T12:42:34.034Z,28.70
2018-05-31T12:45:03.876Z,28.80
2018-05-31T12:47:33.733Z,28.70
2018-05-31T12:50:02.813Z,28.80
2018-05-31T12:52:32.017Z,28.70
2018-05-31T12:55:01.852Z,29.40
2018-05-31T12:57:31.720Z,28.70
2018-05-31T13:00:00.822Z,28.70
2018-05-31T13:02:29.897Z,26.90
2018-05-31T13:04:59.816Z,28.50
2018-05-31T13:07:29.702Z,29.30
2018-05-31T13:09:58.854Z,29.20
2018-05-31T13:12:28.736Z,27.80
2018-05-31T13:14:57.895Z,27.80
2018-05-31T13:17:27.783Z,27.40
2018-05-31T13:19:56.951Z,27.30
2018-05-31T13:22:26.792Z,26.50
2018-05-31T13:24:55.942Z,26.50
2018-05-31T13:27:25.083Z,26.40
2018-05-31T13:29:54.181Z,26.40
2018-05-31T13:32:23.345Z,26.30
2018-05-31T13:34:52.452Z,27.00
2018-05-31T13:37:21.624Z,26.40
2018-05-31T13:39:50.742Z,26.50
2018-05-31T13:42:20.580Z,25.80
2018-05-31T13:44:50.453Z,27.90
2018-05-31T13:47:21.184Z,27.80
2018-05-31T13:49:50.283Z,27.80
2018-05-31T13:52:19.401Z,28.10
2018-05-31T13:54:48.530Z,28.30
2018-05-31T13:57:17.700Z,27.70
2018-05-31T13:59:47.595Z,27.30
2018-05-31T14:02:16.654Z,27.40
2018-05-31T14:04:45.715Z,27.50
2018-05-31T14:07:14.824Z,28.00
2018-05-31T14:09:43.885Z,27.20
2018-05-31T14:12:13.000Z,26.50
2018-05-31T14:14:42.067Z,27.70
2018-05-31T14:17:11.134Z,26.10
2018-05-31T14:19:40.204Z,26.10
2018-05-31T14:22:10.061Z,26.90
2018-05-31T14:24:39.127Z,26.80
2018-05-31T14:27:08.225Z,27.00
2018-05-31T14:29:37.323Z,26.30
2018-05-31T14:32:06.431Z,26.30
2018-05-31T14:34:35.511Z,26.30
2018-05-31T14:37:04.620Z,26.60
2018-05-31T14:39:33.763Z,26.20
2018-05-31T14:42:02.874Z,27.40
2018-05-31T14:44:32.862Z,26.70
2018-05-31T14:47:02.199Z,26.70
2018-05-31T14:49:31.324Z,27.20
2018-05-31T14:52:00.433Z,25.90
2018-05-31T14:54:29.523Z,26.60
2018-05-31T14:56:58.648Z,26.80
2018-05-31T14:59:27.725Z,26.30
2018-05-31T15:01:57.661Z,26.10
2018-05-31T15:04:26.737Z,26.10
2018-05-31T15:06:55.907Z,26.70
2018-05-31T15:09:25.013Z,26.10
2018-05-31T15:11:54.079Z,26.90
2018-05-31T15:14:24.000Z,27.60
2018-05-31T15:16:53.127Z,27.10
2018-05-31T15:19:23.018Z,27.30
2018-05-31T15:21:52.161Z,27.30
2018-05-31T15:24:22.366Z,27.60
2018-05-31T15:26:51.464Z,27.60
2018-05-31T15:29:20.561Z,28.70
2018-05-31T15:31:49.703Z,29.60
2018-05-31T15:34:18.824Z,29.20
2018-05-31T15:36:47.924Z,29.30
2018-05-31T15:39:16.990Z,29.70
2018-05-31T15:41:46.064Z,30.20
2018-05-31T15:44:15.172Z,30.60
2018-05-31T15:46:44.252Z,29.90
2018-05-31T15:49:13.348Z,30.20
2018-05-31T15:51:42.468Z,29.80
2018-05-31T15:54:11.596Z,30.80
2018-05-31T15:56:40.692Z,30.70
2018-05-31T15:59:09.764Z,30.20
2018-05-31T16:01:38.869Z,30.00
2018-05-31T16:04:08.712Z,30.90
2018-05-31T16:06:38.568Z,31.60
2018-05-31T16:09:07.663Z,31.60
2018-05-31T16:11:36.830Z,31.60
2018-05-31T16:14:05.921Z,32.10
2018-05-31T16:16:35.047Z,31.60
2018-05-31T16:19:04.139Z,31.50
2018-05-31T16:21:33.217Z,31.30
2018-05-31T16:24:02.490Z,31.60
2018-05-31T16:26:32.360Z,31.60
2018-05-31T16:29:01.489Z,31.60
2018-05-31T16:31:30.604Z,32.30
2018-05-31T16:33:59.735Z,30.80
2018-05-31T16:36:28.809Z,31.20
2018-05-31T16:38:58.065Z,30.90
2018-05-31T16:41:27.178Z,32.10
2018-05-31T16:43:56.239Z,32.50
2018-05-31T16:46:25.341Z,32.20
2018-05-31T16:48:54.451Z,32.20
2018-05-31T16:51:23.608Z,32.80
2018-05-31T16:53:52.721Z,32.70
2018-05-31T16:56:21.917Z,33.10
2018-05-31T16:58:51.032Z,33.20
2018-05-31T17:01:20.176Z,33.10
2018-05-31T17:03:50.110Z,33.00
2018-05-31T17:06:19.986Z,32.50
2018-05-31T17:08:49.140Z,32.50
2018-05-31T17:11:18.256Z,33.10
2018-05-31T17:13:48.208Z,33.10
2018-05-31T17:16:17.283Z,33.10
2018-05-31T17:18:46.386Z,33.00
2018-05-31T17:21:15.460Z,33.00
2018-05-31T17:23:44.527Z,33.00
2018-05-31T17:26:14.424Z,33.00
2018-05-31T17:28:43.517Z,33.00
2018-05-31T17:31:12.673Z,33.10
2018-05-31T17:33:42.528Z,33.20
2018-05-31T17:36:11.658Z,33.20
2018-05-31T17:38:40.789Z,33.50
2018-05-31T17:41:09.906Z,33.60
2018-05-31T17:43:39.060Z,34.60
2018-05-31T17:46:09.136Z,34.20
2018-05-31T17:48:38.212Z,34.20
2018-05-31T17:51:08.118Z,34.40
2018-05-31T17:53:38.242Z,34.40
2018-05-31T17:56:07.315Z,34.20
2018-05-31T17:58:36.372Z,32.90
2018-05-31T18:01:05.551Z,33.40
2018-05-31T18:03:34.722Z,33.50
2018-05-31T18:06:03.873Z,33.00
2018-05-31T18:08:32.944Z,33.00
2018-05-31T18:11:02.829Z,33.10
2018-05-31T18:13:31.935Z,33.00
2018-05-31T18:16:01.025Z,33.00
2018-05-31T18:18:30.124Z,32.90
2018-05-31T18:20:59.227Z,33.30
2018-05-31T18:23:28.325Z,33.40
2018-05-31T18:25:57.400Z,33.90
2018-05-31T18:28:26.532Z,34.20
2018-05-31T18:30:56.377Z,35.60
2018-05-31T18:33:26.257Z,35.50
2018-05-31T18:35:55.439Z,35.40
2018-05-31T18:38:24.544Z,35.00
2018-05-31T18:40:53.611Z,35.50
2018-05-31T18:43:22.713Z,36.30
2018-05-31T18:45:51.863Z,36.50
2018-05-31T18:48:20.939Z,36.80
2018-05-31T18:50:50.106Z,37.10
2018-05-31T18:53:19.171Z,37.20
2018-05-31T18:55:48.271Z,36.90
2018-05-31T18:58:17.381Z,37.40
2018-05-31T19:00:46.486Z,36.50
2018-05-31T19:03:15.689Z,37.50
2018-05-31T19:05:44.806Z,36.60
2018-05-31T19:08:13.926Z,37.40
2018-05-31T19:10:43.016Z,36.90
2018-05-31T19:13:17.571Z,37.30
2018-05-31T19:15:46.733Z,37.60
2018-05-31T19:18:21.394Z,37.80
2018-05-31T19:20:50.524Z,38.00
2018-05-31T19:23:19.634Z,38.40
2018-05-31T19:25:48.718Z,38.90
2018-05-31T19:28:17.822Z,39.20
2018-05-31T19:30:52.492Z,38.40
2018-05-31T19:33:21.573Z,38.70
2018-05-31T19:35:56.367Z,38.70
2018-05-31T19:38:25.534Z,38.80
2018-05-31T19:40:54.659Z,38.80
2018-05-31T19:43:29.258Z,39.20
2018-05-31T19:45:59.159Z,39.60
2018-05-31T19:48:28.268Z,39.50
2018-05-31T19:50:57.653Z,40.00
2018-05-31T19:53:32.183Z,40.40
2018-05-31T19:56:01.268Z,40.20
2018-05-31T19:58:35.895Z,41.10
2018-05-31T20:01:11.300Z,41.00
2018-05-31T20:03:40.404Z,40.90
2018-05-31T20:06:09.492Z,41.00
2018-05-31T20:08:38.677Z,41.00
2018-05-31T20:11:08.537Z,41.00
2018-05-31T20:13:37.719Z,40.90
2018-05-31T20:16:07.594Z,40.70
2018-05-31T20:18:36.755Z,40.70
2018-05-31T20:21:05.870Z,40.90
2018-05-31T20:23:35.707Z,41.10
2018-05-31T20:26:06.194Z,40.80
2018-05-31T20:28:35.300Z,40.80
2018-05-31T20:31:04.377Z,40.80
2018-05-31T20:33:34.286Z,40.80
2018-05-31T20:36:03.398Z,40.80
2018-05-31T20:38:32.548Z,40.80
2018-05-31T20:41:01.811Z,40.80
2018-05-31T20:43:30.927Z,40.20
2018-05-31T20:46:00.096Z,39.90
2018-05-31T20:48:29.167Z,40.20
2018-05-31T20:50:59.039Z,40.50
2018-05-31T20:53:28.139Z,40.50
2018-05-31T20:55:57.302Z,40.70
2018-05-31T20:58:26.384Z,40.70
2018-05-31T21:00:55.552Z,40.70
2018-05-31T21:03:24.661Z,40.70
2018-05-31T21:05:53.731Z,41.00
2018-05-31T21:08:22.819Z,41.60
2018-05-31T21:10:51.916Z,41.80
2018-05-31T21:13:21.065Z,42.00
2018-05-31T21:15:50.131Z,42.20
2018-05-31T21:18:19.232Z,42.00
2018-05-31T21:20:48.305Z,42.10
2018-05-31T21:23:17.417Z,42.20
2018-05-31T21:25:46.515Z,42.20
2018-05-31T21:28:15.619Z,42.40
2018-05-31T21:30:44.700Z,42.60
2018-05-31T21:33:13.810Z,42.80
2018-05-31T21:35:42.979Z,43.00
2018-05-31T21:38:12.144Z,43.30
2018-05-31T21:40:41.252Z,43.60
2018-05-31T21:43:10.380Z,44.00
2018-05-31T21:45:39.450Z,44.10
2018-05-31T21:48:08.520Z,44.50
2018-05-31T21:50:37.652Z,44.70
2018-05-31T21:53:08.432Z,45.30
2018-05-31T21:55:37.626Z,45.30
2018-05-31T21:58:06.715Z,45.50
2018-05-31T22:00:41.402Z,45.90
2018-05-31T22:03:10.462Z,46.30
2018-05-31T22:05:39.624Z,46.70
2018-05-31T22:08:08.744Z,46.50
2018-05-31T22:10:37.811Z,46.70
2018-05-31T22:13:07.644Z,47.00
2018-05-31T22:15:37.488Z,47.40
2018-05-31T22:18:06.584Z,47.30
2018-05-31T22:20:35.697Z,47.50
2018-05-31T22:23:05.556Z,48.20
2018-05-31T22:25:34.684Z,48.20
2018-05-31T22:28:03.793Z,48.30
2018-05-31T22:30:32.869Z,48.80
2018-05-31T22:33:02.044Z,48.80
2018-05-31T22:35:31.115Z,48.80
2018-05-31T22:38:00.250Z,49.10
2018-05-31T22:40:29.391Z,49.90
2018-05-31T22:42:59.299Z,50.10
2018-05-31T22:45:28.371Z,50.00
2018-05-31T22:47:57.509Z,50.10
2018-05-31T22:50:27.357Z,50.80
2018-05-31T22:52:56.431Z,50.80
2018-05-31T22:55:25.556Z,50.80
2018-05-31T22:57:54.659Z,51.10
2018-05-31T23:00:23.765Z,51.20
2018-05-31T23:02:52.913Z,51.20
2018-05-31T23:05:22.027Z,51.20
2018-05-31T23:07:51.105Z,51.50
2018-05-31T23:10:20.306Z,51.60
2018-05-31T23:12:49.409Z,51.40
2018-05-31T23:15:18.505Z,51.20
2018-05-31T23:17:47.599Z,51.30
2018-05-31T23:20:16.706Z,51.70
2018-05-31T23:22:45.873Z,51.00
2018-05-31T23:25:14.990Z,51.30
2018-05-31T23:27:44.072Z,50.90
2018-05-31T23:30:13.188Z,51.40
2018-05-31T23:32:42.293Z,51.60
2018-05-31T23:35:11.413Z,51.40
2018-05-31T23:37:40.514Z,51.70
2018-05-31T23:40:09.632Z,51.60
2018-05-31T23:42:38.740Z,51.60
2018-05-31T23:45:07.886Z,51.60
2018-05-31T23:47:36.962Z,51.50
2018-05-31T23:50:06.038Z,51.80
2018-05-31T23:52:35.966Z,52.10
2018-05-31T23:55:05.069Z,52.10
2018-05-31T23:57:34.983Z,51.70
